Terminal Aerodrome Forecast
Issued by NWS

Home | Current Version | Previous Version | Text Only | Print | Product List | Glossary On
Versions: 1 2 3 4 5 6 7 8 9 10 11 12 13 14 15 16 17
000
FTUS46 KMTR 182000 AAA
TAFSNS
TAF AMD
KSNS 182033Z 1821/1918 30012G17KT P6SM VCSH BKN050
     FM182300 28010G15KT P6SM BKN050
     FM190300 29006KT P6SM BKN015
     FM190800 30003KT P6SM OVC010
     FM191700 VRB03KT P6SM SCT015=

USA.gov is the U.S. government's official web portal to all federal, state and local government web resources and services.